Share

Irwinville, GA (31760)

11:45 PM EDT on April 23, 2014 (GMT -0400)
Fitzgerald Municipal (KFZG) Elev 364 ft | 31.68 °N, 83.27 °W | Change Station

Current weather conditions updated 10 minutes ago

Overcast
Overcast
63 °F
Feels Like 63 °F
N
0
Wind Variable Wind from North
Sunrise 6:56 AM
Sunset 8:08 PM
Moon Waning Crescent

Tomorrow is forecast to be nearly the same temperature as today.

Pressure 29.96 in
Visibility 7.0 miles
Clouds Overcast 100 ft
Dew Point 63 °F
Humidity 100%
Rainfall 0.00 in
Snow Depth Not available.
UV 0 out of 16
Pollen 8.00 out of 12
Air Quality Not available.
Flu Activity Sporadic
METAR KFZG 240335Z AUTO 00000KT 7SM OVC001 17/17 A2996 RMK AO2 T01720172

More Conditions Fewer Conditions

Pressure 29.96 in
Visibility 7.0 miles
Clouds Overcast 100 ft
Dew Point 63 °F
Humidity 100%
Rainfall 0.00 in
Snow Depth Not available.
UV 0 out of 16
Pollen 8.00 out of 12
Air Quality Not available.
Flu Activity Sporadic
METAR KFZG 240335Z AUTO 00000KT 7SM OVC001 17/17 A2996 RMK AO2 T01720172

More Conditions Fewer Conditions

10-Day Weather Forecast

Almanac

Astronomy

Apr. 23, 2014 Rise Set
Actual Time 6:56 AM EDT 8:08 PM EDT
Civil Twilight 6:30 AM EDT 8:33 PM EDT
Nautical Twilight 6:00 AM EDT 9:03 PM EDT
Astronomical Twilight 5:29 AM EDT 9:35 PM EDT
Moon 3:04 AM EDT (4/23) 2:36 PM EDT (4/23)
Length of Visible Light 14h 02m
Length of Day
13h 11m
Tomorrow will be 1m 45s longer.
Waning Crescent, 30% of the Moon is Illuminated
Today
Waning Crescent
Apr 29
New
May 6
First Quarter
May 14
Full
May 21
Last Quarter

Today's Extremes

State Highs State Lows

Community

  • Balance
    Balance
  • Nestled In
    Nestled In
  • Stunning Sunrise
    Stunning Sunrise
  • spring flowers
    spring flowers
  • Earth Day Spectrum Ove' Blue
    Earth Day Spectrum Ove' Blue

WunderPhotos

Upload Photos

1,704,542 photos uploaded!

Nearby

Snow Depth

Station Depth Elevation
No new snow has been reported.

Coastal Water Temperatures

Place Temperature
No Stations Reporting

Earthquake Activity

City Distance Mag. Time & Date
No recent earthquake activity has been reported nearby.
Minimum magnitude displayed is 2.5.

Nearby Weather Stations

Station Location Temp. Dew Point Humidity Wind Precip. Elev Updated Type
Forest Lakes, Tifton, GA 63.0 °F 61 °F 94% West  at  0.0 mph 0.00 in / hr 329 ft 11:45 PM EDT Normal
APRSWXNET Ashburn GA, Ashburn, GA 65 °F 60 °F 85% WNW  at  0 mph 0.00 in / hr 452 ft 11:03 PM EDT MADIS
Abbeville, GA, Abbeville, GA 58.6 °F 58 °F 96% NE  at  0.0 mph - / hr 253 ft 11:35 PM EDT Normal

Show More Stations Show Fewer Stations

What do you think?

We're not finished. Please let us know what you like, what you don't like, and what you are still missing.